Gytsjerk, Netherlands
Current Conditions -  °F | °C
As of 10:25 AM on Saturday 29 Nov 2014 (Local Time) from EHLW Reporting Station
Haze Haze  
Wind Chill: 28°   Ceiling: 1000
Heat Index: 36°   Visibility: 3mi
Dew Point: 32°   Wind: 10mph
Humidity: 87%   Direction: 110°ESE
Pressure: 30.03"   Gusts: NA
Location:  53.24°N, 5.9°E
Report Text: EHLW 290925Z AUTO 11009KT 4900 BR OVC010 02/M00 Q1017 GRN
Loading
Personal Weather Stations






























Interactive Weather Map New forecast layout! Learn more

10-Day Weather Forecast

Advertisements
Track Severe Weather on mobile